createdAt,value
2023-03-10T00:00:39.848Z,5.55
2023-03-10T00:03:06.951Z,5.03
2023-03-10T00:05:34.104Z,5.38
2023-03-10T00:08:00.989Z,5.13
2023-03-10T00:10:27.885Z,4.60
2023-03-10T00:12:54.793Z,4.53
2023-03-10T00:15:22.039Z,4.60
2023-03-10T00:17:55.552Z,5.03
2023-03-10T00:20:23.353Z,4.57
2023-03-10T00:22:50.411Z,4.93
2023-03-10T00:25:17.346Z,4.53
2023-03-10T00:27:44.154Z,4.85
2023-03-10T00:30:11.453Z,5.00
2023-03-10T00:32:38.355Z,5.50
2023-03-10T00:35:06.364Z,4.45
2023-03-10T00:37:36.651Z,4.22
2023-03-10T00:40:04.993Z,5.85
2023-03-10T00:42:31.777Z,4.63
2023-03-10T00:44:58.633Z,5.00
2023-03-10T00:47:25.532Z,5.45
2023-03-10T00:49:52.512Z,4.45
2023-03-10T00:52:19.310Z,5.05
2023-03-10T00:54:46.211Z,4.28
2023-03-10T00:57:13.106Z,4.32
2023-03-10T00:59:50.101Z,4.22
2023-03-10T01:02:18.888Z,5.72
2023-03-10T01:04:46.638Z,5.03
2023-03-10T01:07:13.474Z,4.30
2023-03-10T01:09:42.856Z,4.30
2023-03-10T01:12:09.819Z,4.15
2023-03-10T01:14:37.036Z,4.70
2023-03-10T01:17:05.350Z,4.85
2023-03-10T01:19:32.153Z,4.97
2023-03-10T01:21:58.966Z,4.20
2023-03-10T01:24:25.881Z,4.78
2023-03-10T01:26:52.722Z,4.88
2023-03-10T01:29:19.598Z,5.00
2023-03-10T01:31:46.823Z,5.05
2023-03-10T01:34:13.776Z,5.03
2023-03-10T01:36:42.392Z,4.57
2023-03-10T01:39:09.469Z,4.50
2023-03-10T01:41:41.257Z,5.22
2023-03-10T01:44:15.527Z,5.05
2023-03-10T01:46:46.505Z,4.25
2023-03-10T01:49:21.746Z,5.13
2023-03-10T01:51:56.712Z,4.60
2023-03-10T01:54:29.025Z,4.82
2023-03-10T01:56:57.258Z,5.07
2023-03-10T01:59:26.139Z,4.32
2023-03-10T02:01:53.163Z,4.88
2023-03-10T02:04:32.598Z,4.65
2023-03-10T02:07:01.278Z,5.00
2023-03-10T02:09:29.053Z,4.57
2023-03-10T02:11:58.534Z,5.00
2023-03-10T02:14:25.848Z,5.00
2023-03-10T02:16:52.654Z,4.90
2023-03-10T02:19:54.706Z,4.03
2023-03-10T02:22:21.740Z,4.75
2023-03-10T02:25:27.950Z,5.55
2023-03-10T02:27:55.362Z,4.25
2023-03-10T02:30:32.683Z,4.45
2023-03-10T02:33:04.769Z,4.40
2023-03-10T02:35:31.672Z,4.72
2023-03-10T02:37:59.488Z,4.47
2023-03-10T02:40:42.852Z,3.92
2023-03-10T02:43:23.994Z,4.80
2023-03-10T02:45:52.301Z,4.63
2023-03-10T02:48:28.371Z,4.00
2023-03-10T02:50:57.133Z,3.58
2023-03-10T02:53:26.847Z,4.00
2023-03-10T02:55:54.797Z,4.47
2023-03-10T02:58:22.727Z,3.70
2023-03-10T03:00:50.612Z,4.10
2023-03-10T03:03:19.488Z,4.72
2023-03-10T03:05:46.806Z,3.85
2023-03-10T03:08:13.720Z,4.70
2023-03-10T03:10:40.608Z,4.28
2023-03-10T03:13:07.986Z,4.68
2023-03-10T03:15:35.143Z,5.07
2023-03-10T03:18:02.310Z,4.82
2023-03-10T03:20:31.445Z,4.38
2023-03-10T03:22:58.637Z,4.03
2023-03-10T03:25:28.098Z,5.30
2023-03-10T03:27:55.620Z,4.05
2023-03-10T03:30:25.275Z,4.60
2023-03-10T03:32:53.706Z,4.47
2023-03-10T03:35:24.685Z,3.78
2023-03-10T03:37:52.800Z,4.95
2023-03-10T03:40:21.113Z,4.13
2023-03-10T03:42:50.734Z,4.40
2023-03-10T03:45:19.805Z,5.03
2023-03-10T03:47:47.168Z,5.45
2023-03-10T03:50:17.207Z,5.15
2023-03-10T03:52:44.942Z,4.97
2023-03-10T03:55:14.230Z,5.70
2023-03-10T03:57:42.740Z,5.30
2023-03-10T04:00:14.331Z,5.63
2023-03-10T04:02:41.230Z,5.10
2023-03-10T04:05:08.854Z,4.72
2023-03-10T04:07:38.065Z,5.88
2023-03-10T04:10:05.473Z,5.72
2023-03-10T04:12:32.284Z,5.82
2023-03-10T04:14:59.070Z,5.10
2023-03-10T04:17:26.053Z,5.38
2023-03-10T04:20:06.321Z,5.93
2023-03-10T04:22:34.145Z,5.75
2023-03-10T04:25:00.997Z,6.10
2023-03-10T04:27:27.873Z,5.22
2023-03-10T04:29:54.850Z,5.13
2023-03-10T04:32:21.764Z,5.60
2023-03-10T04:34:48.756Z,5.07
2023-03-10T04:37:15.658Z,4.82
2023-03-10T04:39:42.669Z,4.75
2023-03-10T04:42:09.587Z,4.88
2023-03-10T04:44:36.440Z,5.03
2023-03-10T04:47:03.455Z,4.45
2023-03-10T04:49:30.437Z,4.22
2023-03-10T04:51:57.243Z,4.50
2023-03-10T04:54:24.143Z,3.88
2023-03-10T04:56:50.979Z,4.93
2023-03-10T04:59:18.035Z,4.00
2023-03-10T05:01:45.003Z,3.97
2023-03-10T05:04:11.908Z,3.58
2023-03-10T05:06:38.970Z,3.28
2023-03-10T05:09:05.983Z,4.32
2023-03-10T05:11:32.822Z,3.83
2023-03-10T05:13:59.671Z,3.67
2023-03-10T05:16:26.540Z,3.88
2023-03-10T05:18:53.863Z,3.45
2023-03-10T05:21:21.915Z,3.80
2023-03-10T05:23:49.675Z,3.92
2023-03-10T05:26:17.042Z,3.05
2023-03-10T05:28:44.131Z,3.60
2023-03-10T05:31:14.241Z,4.40
2023-03-10T05:33:41.703Z,4.03
2023-03-10T05:36:11.693Z,3.20
2023-03-10T05:38:38.870Z,3.97
2023-03-10T05:41:10.088Z,3.30
2023-03-10T05:43:38.225Z,4.20
2023-03-10T05:46:06.168Z,3.30
2023-03-10T05:48:33.287Z,2.78
2023-03-10T05:51:01.687Z,3.72
2023-03-10T05:53:30.003Z,3.53
2023-03-10T05:55:57.569Z,3.85
2023-03-10T05:58:25.984Z,3.10
2023-03-10T06:00:53.194Z,2.72
2023-03-10T06:03:20.553Z,4.18
2023-03-10T06:05:47.743Z,3.85
2023-03-10T06:08:14.614Z,3.38
2023-03-10T06:10:41.738Z,3.38
2023-03-10T06:13:08.575Z,3.85
2023-03-10T06:15:35.469Z,3.90
2023-03-10T06:18:02.329Z,3.92
2023-03-10T06:20:29.189Z,3.60
2023-03-10T06:22:56.011Z,3.10
2023-03-10T06:25:22.806Z,4.32
2023-03-10T06:27:49.646Z,4.05
2023-03-10T06:30:16.907Z,3.38
2023-03-10T06:32:43.904Z,3.67
2023-03-10T06:35:13.346Z,3.72
2023-03-10T06:37:40.795Z,4.10
2023-03-10T06:40:10.123Z,3.28
2023-03-10T06:42:36.994Z,4.03
2023-03-10T06:45:04.751Z,3.38
2023-03-10T06:47:31.676Z,4.43
2023-03-10T06:49:58.536Z,4.30
2023-03-10T06:52:25.811Z,4.10
2023-03-10T06:54:52.624Z,4.00
2023-03-10T06:57:21.043Z,3.67
2023-03-10T06:59:47.952Z,4.40
2023-03-10T07:02:14.872Z,4.57
2023-03-10T07:04:41.834Z,4.65
2023-03-10T07:07:08.679Z,4.90
2023-03-10T07:09:35.768Z,4.60
2023-03-10T07:12:02.634Z,4.57
2023-03-10T07:14:29.826Z,5.30
2023-03-10T07:16:56.882Z,5.22
2023-03-10T07:19:23.790Z,5.80
2023-03-10T07:21:50.599Z,5.85
2023-03-10T07:24:18.108Z,6.20
2023-03-10T07:26:45.304Z,6.63
2023-03-10T07:29:12.269Z,6.55
2023-03-10T07:31:39.359Z,5.57
2023-03-10T07:34:06.270Z,5.68
2023-03-10T07:36:33.187Z,6.55
2023-03-10T07:39:00.157Z,6.72
2023-03-10T07:41:27.091Z,6.65
2023-03-10T07:43:54.701Z,6.68
2023-03-10T07:46:22.223Z,7.03
2023-03-10T07:48:49.570Z,6.18
2023-03-10T07:51:16.411Z,5.30
2023-03-10T07:53:43.284Z,6.63
2023-03-10T07:56:11.766Z,7.22
2023-03-10T07:58:39.558Z,6.25
2023-03-10T08:01:07.770Z,6.30
2023-03-10T08:03:34.957Z,6.38
2023-03-10T08:06:05.528Z,6.05
2023-03-10T08:08:32.573Z,6.90
2023-03-10T08:11:09.748Z,5.88
2023-03-10T08:13:37.859Z,6.13
2023-03-10T08:16:05.234Z,6.65
2023-03-10T08:18:33.018Z,6.43
2023-03-10T08:21:03.132Z,5.30
2023-03-10T08:23:30.151Z,6.30
2023-03-10T08:26:04.095Z,6.45
2023-03-10T08:28:31.140Z,5.60
2023-03-10T08:31:04.918Z,5.85
2023-03-10T08:33:33.304Z,5.18
2023-03-10T08:36:09.093Z,6.45
2023-03-10T08:38:36.570Z,5.47
2023-03-10T08:41:15.832Z,6.03
2023-03-10T08:43:43.347Z,5.95
2023-03-10T08:46:10.962Z,6.43
2023-03-10T08:48:39.724Z,6.32
2023-03-10T08:51:08.848Z,5.85
2023-03-10T08:53:38.738Z,5.45
2023-03-10T08:56:06.361Z,6.32
2023-03-10T08:58:33.656Z,4.95
2023-03-10T09:01:01.044Z,5.65
2023-03-10T09:03:31.355Z,6.10
2023-03-10T09:05:58.575Z,5.80
2023-03-10T09:08:27.562Z,6.28
2023-03-10T09:10:55.004Z,5.82
2023-03-10T09:13:22.483Z,5.85
2023-03-10T09:15:50.604Z,5.97
2023-03-10T09:18:17.638Z,5.85
2023-03-10T09:20:45.849Z,5.60
2023-03-10T09:23:14.116Z,5.50
2023-03-10T09:25:43.681Z,6.07
2023-03-10T09:28:12.060Z,6.85
2023-03-10T09:30:41.260Z,5.30
2023-03-10T09:33:14.194Z,6.05
2023-03-10T09:35:41.703Z,5.55
2023-03-10T09:38:08.993Z,6.85
2023-03-10T09:40:38.110Z,5.18
2023-03-10T09:43:14.322Z,5.32
2023-03-10T09:46:05.059Z,5.75
2023-03-10T09:48:41.930Z,5.82
2023-03-10T09:51:16.630Z,5.05
2023-03-10T09:53:48.081Z,5.47
2023-03-10T09:56:20.014Z,6.32
2023-03-10T09:59:14.776Z,5.47
2023-03-10T10:01:45.126Z,6.20
2023-03-10T10:04:19.616Z,6.32
2023-03-10T10:06:47.954Z,6.95
2023-03-10T10:09:17.722Z,6.88
2023-03-10T10:11:44.576Z,6.45
2023-03-10T10:14:27.901Z,6.55
2023-03-10T10:19:28.151Z,5.35
2023-03-10T10:22:07.097Z,5.65
2023-03-10T10:24:34.733Z,6.50
2023-03-10T10:27:01.550Z,7.53
2023-03-10T10:29:36.895Z,6.43
2023-03-10T10:32:05.417Z,5.60
2023-03-10T10:34:33.205Z,6.60
2023-03-10T10:37:00.708Z,7.57
2023-03-10T10:39:42.970Z,6.30
2023-03-10T10:42:31.168Z,6.88
2023-03-10T10:45:02.202Z,6.65
2023-03-10T10:47:32.192Z,6.82
2023-03-10T10:50:22.748Z,7.45
2023-03-10T10:52:53.268Z,7.15
2023-03-10T10:55:35.223Z,6.72
2023-03-10T10:58:04.733Z,6.50
2023-03-10T11:00:34.816Z,7.32
2023-03-10T11:03:01.626Z,7.43
2023-03-10T11:05:37.142Z,6.05
2023-03-10T11:08:42.948Z,7.88
2023-03-10T11:11:18.972Z,6.68
2023-03-10T11:14:05.239Z,7.55
2023-03-10T11:17:01.990Z,6.15
2023-03-10T11:19:41.000Z,6.88
2023-03-10T11:22:22.875Z,7.13
2023-03-10T11:25:28.394Z,7.80
2023-03-10T11:28:12.890Z,6.40
2023-03-10T11:33:37.012Z,7.07
2023-03-10T11:36:30.032Z,7.35
2023-03-10T11:39:17.685Z,7.00
2023-03-10T11:41:51.516Z,7.30
2023-03-10T11:44:43.868Z,6.68
2023-03-10T11:47:41.890Z,7.22
2023-03-10T11:50:36.029Z,6.47
2023-03-10T11:53:12.574Z,7.20
2023-03-10T11:55:42.738Z,6.82
2023-03-10T11:58:23.304Z,6.20
2023-03-10T12:00:53.754Z,6.45
2023-03-10T12:03:26.004Z,5.93
2023-03-10T12:05:58.198Z,7.05
2023-03-10T12:08:29.448Z,7.00
2023-03-10T12:10:59.671Z,6.45
2023-03-10T12:13:36.106Z,6.55
2023-03-10T12:16:06.159Z,6.28
2023-03-10T12:18:34.004Z,6.63
2023-03-10T12:21:36.671Z,6.50
2023-03-10T12:24:04.580Z,6.32
2023-03-10T12:26:44.833Z,6.88
2023-03-10T12:29:21.073Z,6.85
2023-03-10T12:31:52.717Z,6.05
2023-03-10T12:34:24.676Z,6.30
2023-03-10T12:36:54.604Z,6.97
2023-03-10T12:39:32.679Z,6.50
2023-03-10T12:42:01.600Z,6.75
2023-03-10T12:44:46.747Z,6.20
2023-03-10T12:47:19.805Z,6.30
2023-03-10T12:49:58.461Z,6.05
2023-03-10T12:52:46.382Z,7.53
2023-03-10T12:55:24.576Z,6.57
2023-03-10T12:57:56.657Z,6.97
2023-03-10T13:00:41.063Z,6.22
2023-03-10T13:03:10.793Z,6.85
2023-03-10T13:05:55.517Z,6.88
2023-03-10T13:08:29.654Z,6.35
2023-03-10T13:13:31.042Z,5.55
2023-03-10T13:16:00.254Z,6.70
2023-03-10T13:18:27.448Z,6.75
2023-03-10T13:20:54.591Z,5.70
2023-03-10T13:23:22.972Z,6.15
2023-03-10T13:25:58.634Z,6.43
2023-03-10T13:28:28.208Z,6.60
2023-03-10T13:31:16.436Z,6.47
2023-03-10T13:33:52.990Z,5.88
2023-03-10T13:36:26.662Z,6.88
2023-03-10T13:38:53.762Z,6.28
2023-03-10T13:41:20.621Z,5.85
2023-03-10T13:43:51.362Z,6.63
2023-03-10T13:46:33.110Z,5.95
2023-03-10T13:49:06.648Z,5.90
2023-03-10T13:51:38.019Z,6.35
2023-03-10T13:54:29.316Z,6.95
2023-03-10T13:57:21.238Z,6.65
2023-03-10T13:59:49.159Z,6.55
2023-03-10T14:02:30.513Z,6.68
2023-03-10T14:04:58.449Z,6.20
2023-03-10T14:07:30.969Z,6.65
2023-03-10T14:10:03.969Z,7.40
2023-03-10T14:12:43.137Z,6.55
2023-03-10T14:15:25.252Z,6.60
2023-03-10T14:18:07.787Z,6.50
2023-03-10T14:20:45.437Z,7.97
2023-03-10T14:23:21.546Z,6.82
2023-03-10T14:26:00.422Z,7.78
2023-03-10T14:28:32.452Z,6.53
2023-03-10T14:31:04.714Z,6.43
2023-03-10T14:33:31.803Z,6.95
2023-03-10T14:35:58.689Z,6.38
2023-03-10T14:38:25.540Z,5.15
2023-03-10T14:40:54.527Z,6.30
2023-03-10T14:43:26.892Z,6.10
2023-03-10T14:45:56.793Z,6.82
2023-03-10T14:48:25.510Z,5.93
2023-03-10T14:50:53.393Z,5.05
2023-03-10T14:53:24.798Z,6.18
2023-03-10T14:55:56.978Z,5.70
2023-03-10T14:58:34.656Z,5.88
2023-03-10T15:01:02.267Z,6.28
2023-03-10T15:03:29.157Z,6.22
2023-03-10T15:05:55.989Z,5.55
2023-03-10T15:08:23.520Z,5.80
2023-03-10T15:10:52.010Z,5.05
2023-03-10T15:13:21.595Z,6.40
2023-03-10T15:15:49.287Z,4.95
2023-03-10T15:18:19.316Z,5.75
2023-03-10T15:20:46.611Z,4.72
2023-03-10T15:23:16.523Z,4.57
2023-03-10T15:25:46.075Z,5.75
2023-03-10T15:28:13.827Z,5.30
2023-03-10T15:30:40.947Z,5.53
2023-03-10T15:33:07.803Z,5.22
2023-03-10T15:35:35.243Z,4.90
2023-03-10T15:38:02.807Z,4.60
2023-03-10T15:40:31.910Z,5.35
2023-03-10T15:43:00.406Z,5.40
2023-03-10T15:45:29.914Z,4.93
2023-03-10T15:47:57.681Z,5.00
2023-03-10T15:50:24.702Z,4.68
2023-03-10T15:52:54.526Z,5.07
2023-03-10T15:55:21.624Z,5.80
2023-03-10T15:57:50.139Z,6.07
2023-03-10T16:00:22.387Z,4.82
2023-03-10T16:02:50.651Z,5.15
2023-03-10T16:05:18.516Z,4.30
2023-03-10T16:07:45.628Z,4.63
2023-03-10T16:10:14.913Z,6.43
2023-03-10T16:12:42.164Z,5.85
2023-03-10T16:15:09.756Z,6.03
2023-03-10T16:17:36.931Z,6.28
2023-03-10T16:20:06.957Z,6.97
2023-03-10T16:22:33.978Z,6.35
2023-03-10T16:25:00.998Z,7.40
2023-03-10T16:27:27.827Z,6.35
2023-03-10T16:29:54.640Z,6.40
2023-03-10T16:32:21.481Z,6.80
2023-03-10T16:34:48.323Z,6.80
2023-03-10T16:37:15.163Z,5.68
2023-03-10T16:39:43.375Z,5.97
2023-03-10T16:42:10.260Z,7.05
2023-03-10T16:44:37.165Z,6.82
2023-03-10T16:47:04.024Z,7.45
2023-03-10T16:49:32.308Z,6.65
2023-03-10T16:51:59.760Z,6.80
2023-03-10T16:54:26.889Z,7.35
2023-03-10T16:56:56.982Z,7.35
2023-03-10T16:59:25.269Z,6.95
2023-03-10T17:01:52.312Z,8.30
2023-03-10T17:04:19.894Z,6.63
2023-03-10T17:06:47.740Z,7.70
2023-03-10T17:09:15.745Z,6.95
2023-03-10T17:11:54.942Z,6.70
2023-03-10T17:14:23.044Z,7.72
2023-03-10T17:16:50.960Z,6.47
2023-03-10T17:19:20.536Z,6.78
2023-03-10T17:21:49.514Z,6.05
2023-03-10T17:24:17.943Z,5.10
2023-03-10T17:26:45.438Z,6.50
2023-03-10T17:29:12.356Z,4.80
2023-03-10T17:31:39.608Z,4.00
2023-03-10T17:34:10.435Z,3.88
2023-03-10T17:36:37.285Z,3.20
2023-03-10T17:39:05.414Z,3.05
2023-03-10T17:41:34.296Z,2.92
2023-03-10T17:44:01.290Z,4.05
2023-03-10T17:46:29.775Z,3.17
2023-03-10T17:48:57.210Z,3.28
2023-03-10T17:51:29.763Z,4.03
2023-03-10T17:53:58.762Z,2.70
2023-03-10T17:56:26.140Z,3.42
2023-03-10T17:58:54.292Z,3.00
2023-03-10T18:01:26.582Z,3.05
2023-03-10T18:03:56.017Z,3.42
2023-03-10T18:06:25.585Z,3.75
2023-03-10T18:08:55.922Z,3.38
2023-03-10T18:11:24.452Z,2.72
2023-03-10T18:13:51.773Z,3.85
2023-03-10T18:16:27.807Z,3.00
2023-03-10T18:18:56.151Z,4.35
2023-03-10T18:21:23.830Z,3.38
2023-03-10T18:23:51.585Z,3.88
2023-03-10T18:26:21.419Z,3.80
2023-03-10T18:28:48.387Z,3.33
2023-03-10T18:31:27.329Z,3.40
2023-03-10T18:33:54.286Z,4.13
2023-03-10T18:36:23.278Z,3.80
2023-03-10T21:59:36.271Z,0.80
2023-03-10T22:02:03.540Z,0.40
2023-03-10T22:04:30.586Z,0.60
2023-03-10T22:06:57.485Z,0.60
2023-03-10T22:09:24.301Z,0.65
2023-03-10T22:11:51.415Z,0.50
2023-03-10T22:14:18.227Z,0.68
2023-03-10T22:16:45.062Z,0.50
2023-03-10T22:19:11.867Z,0.55
2023-03-10T22:21:38.647Z,0.77
2023-03-10T22:24:05.617Z,0.60
2023-03-10T22:26:32.516Z,0.60
2023-03-10T22:29:00.339Z,0.73
2023-03-10T22:31:27.255Z,0.50
2023-03-10T22:33:54.096Z,0.73
2023-03-10T22:36:20.920Z,0.50
2023-03-10T22:38:47.737Z,0.80
2023-03-10T22:41:15.046Z,0.90
2023-03-10T22:43:42.267Z,0.52
2023-03-10T22:46:17.091Z,0.47
2023-03-10T22:48:44.389Z,0.65
2023-03-10T22:51:15.444Z,0.75
2023-03-10T22:53:42.298Z,0.55
2023-03-10T22:56:09.150Z,0.60
2023-03-10T22:58:37.604Z,0.80
2023-03-10T23:01:04.809Z,0.60
2023-03-10T23:03:34.088Z,0.45
2023-03-10T23:06:04.747Z,0.47
2023-03-10T23:08:31.898Z,0.40
2023-03-10T23:10:58.731Z,0.50
2023-03-10T23:13:35.915Z,0.30
2023-03-10T23:16:57.530Z,0.30
2023-03-10T23:19:28.475Z,0.40
2023-03-10T23:21:55.598Z,0.80
2023-03-10T23:24:22.592Z,0.17
2023-03-10T23:26:51.979Z,0.45
2023-03-10T23:29:19.028Z,0.70
2023-03-10T23:31:59.351Z,0.45
2023-03-10T23:34:26.626Z,0.45
2023-03-10T23:36:55.798Z,0.35
2023-03-10T23:39:22.578Z,0.55
2023-03-10T23:41:49.416Z,0.50
2023-03-10T23:44:16.379Z,0.22
2023-03-10T23:46:43.444Z,0.40
2023-03-10T23:49:10.252Z,0.40
2023-03-10T23:51:37.166Z,0.63
2023-03-10T23:54:04.093Z,0.63
2023-03-10T23:56:30.906Z,0.20
2023-03-10T23:58:58.866Z,0.20
